Time;durP1;ratioP1;P1;durP2;ratioP2;P2;SDS_P1;SDS_P2;PMS_P1;PMS_P2;Temp;Humidity;BMP_temperature;BMP_pressure;BME280_temperature;BME280_humidity;BME280_pressure;Samples;Min_cycle;Max_cycle;Signal;HPM_P1;HPM_P2
2023/02/18 00:00:45;;;;;;;56.88;25.42;;;11.20;99.90;;;;;;5050640;28;20032;-91
2023/02/18 00:03:40;;;;;;;48.08;24.25;;;11.20;99.90;;;;;;5056987;28;20032;-88
2023/02/18 00:06:29;;;;;;;54.13;25.92;;;11.20;99.90;;;;;;5047119;28;20040;-90
2023/02/18 00:08:57;;;;;;;54.05;24.65;;;11.20;99.90;;;;;;5056041;28;20539;-88
2023/02/18 00:11:25;;;;;;;52.67;25.48;;;11.30;99.90;;;;;;5056787;28;20050;-89
2023/02/18 00:13:53;;;;;;;55.45;25.13;;;11.30;99.90;;;;;;5056746;28;20453;-89
2023/02/18 00:16:22;;;;;;;55.83;25.70;;;11.30;99.90;;;;;;5056779;28;20036;-89
2023/02/18 00:18:48;;;;;;;61.97;26.73;;;11.30;99.90;;;;;;5056329;28;20046;-89
2023/02/18 00:21:14;;;;;;;59.75;27.92;;;11.30;99.90;;;;;;5056397;28;20021;-89
2023/02/18 00:23:40;;;;;;;63.28;28.45;;;11.30;99.90;;;;;;5055998;28;20066;-88
2023/02/18 00:26:19;;;;;;;57.35;25.75;;;11.30;99.90;;;;;;5039767;28;20029;-89
2023/02/18 00:28:51;;;;;;;66.22;25.55;;;11.30;99.90;;;;;;5056262;28;20032;-88
2023/02/18 00:31:23;;;;;;;61.35;26.02;;;11.30;99.90;;;;;;5056638;28;20024;-88
2023/02/18 00:33:48;;;;;;;53.65;25.00;;;11.30;99.90;;;;;;5056046;28;20024;-88
2023/02/18 00:36:16;;;;;;;61.05;27.05;;;11.30;99.90;;;;;;5056634;28;20033;-88
2023/02/18 00:38:47;;;;;;;57.17;25.95;;;11.30;99.90;;;;;;5056387;28;20372;-87
2023/02/18 00:41:15;;;;;;;62.50;27.02;;;11.30;99.90;;;;;;5039706;28;20353;-88
2023/02/18 00:43:41;;;;;;;61.60;27.80;;;11.30;99.90;;;;;;5056434;28;20417;-89
2023/02/18 00:46:07;;;;;;;59.25;27.00;;;11.30;99.90;;;;;;5056251;28;20025;-88
2023/02/18 00:48:35;;;;;;;59.47;26.70;;;11.30;99.90;;;;;;5056623;28;20037;-89
2023/02/18 00:51:05;;;;;;;55.95;25.33;;;11.30;99.90;;;;;;5073206;28;20051;-89
2023/02/18 00:53:33;;;;;;;54.72;25.88;;;11.30;99.90;;;;;;5073865;28;20064;-88
2023/02/18 00:56:12;;;;;;;;;;;;;;;;;;;;;
2023/02/18 00:58:40;;;;;;;49.67;23.98;;;11.30;99.90;;;;;;5091392;28;20045;-89
2023/02/18 01:01:07;;;;;;;56.67;25.33;;;11.20;99.90;;;;;;5080274;28;20034;-89
2023/02/18 01:03:34;;;;;;;52.00;25.55;;;11.20;99.90;;;;;;5076687;28;20020;-89
2023/02/18 01:06:02;;;;;;;51.15;24.52;;;11.20;99.90;;;;;;5076804;28;20092;-88
2023/02/18 01:08:30;;;;;;;51.60;26.23;;;11.20;99.90;;;;;;5065220;28;20028;-89
2023/02/18 01:10:57;;;;;;;57.85;25.27;;;11.20;99.90;;;;;;5077888;28;20084;-86
2023/02/18 01:13:24;;;;;;;46.75;23.98;;;11.30;99.90;;;;;;5060869;28;20468;-88
2023/02/18 01:15:53;;;;;;;56.35;25.48;;;11.30;99.90;;;;;;5059500;28;20036;-89
2023/02/18 01:18:23;;;;;;;51.03;25.27;;;11.30;99.90;;;;;;5042803;28;20036;-89
2023/02/18 01:20:52;;;;;;;52.47;25.60;;;11.30;99.90;;;;;;5059208;28;20036;-89
2023/02/18 01:23:18;;;;;;;48.78;25.13;;;11.30;99.90;;;;;;5059228;28;20096;-88
2023/02/18 01:25:44;;;;;;;59.10;27.38;;;11.30;99.90;;;;;;5059222;28;20035;-91
2023/02/18 01:28:14;;;;;;;56.58;25.55;;;11.30;99.90;;;;;;5059029;28;20024;-87
2023/02/18 01:30:45;;;;;;;52.22;26.15;;;11.40;99.90;;;;;;5059568;28;20119;-88
2023/02/18 01:33:11;;;;;;;60.25;28.23;;;11.40;99.90;;;;;;5058987;28;20029;-88
2023/02/18 01:35:48;;;;;;;63.50;29.75;;;11.40;99.90;;;;;;5058922;28;20028;-89
2023/02/18 01:38:16;;;;;;;61.53;29.98;;;11.40;99.90;;;;;;5058940;28;20055;-88
2023/02/18 01:40:50;;;;;;;57.83;27.58;;;11.40;99.90;;;;;;5058647;28;20024;-88
2023/02/18 01:43:17;;;;;;;65.53;29.92;;;11.40;99.90;;;;;;5059074;28;20116;-88
2023/02/18 01:45:56;;;;;;;69.72;31.65;;;11.40;99.90;;;;;;5058952;28;20116;-89
2023/02/18 01:48:35;;;;;;;63.03;28.73;;;11.40;99.90;;;;;;5058918;28;20562;-89
2023/02/18 01:51:19;;;;;;;65.00;29.83;;;11.40;99.90;;;;;;5059091;28;20373;-88
2023/02/18 01:54:04;;;;;;;69.20;30.73;;;11.50;99.90;;;;;;5075416;28;20062;-89
2023/02/18 01:56:47;;;;;;;63.50;31.05;;;11.40;99.90;;;;;;5058759;28;20036;-88
2023/02/18 01:59:25;;;;;;;69.15;31.48;;;11.40;99.90;;;;;;5075556;28;20030;-88
2023/02/18 02:02:01;;;;;;;;;;;;;;;;;;;;;
2023/02/18 02:04:27;;;;;;;68.38;30.85;;;11.40;99.90;;;;;;5076825;28;20048;-88
2023/02/18 02:06:52;;;;;;;73.80;30.83;;;11.40;99.90;;;;;;5058356;28;20432;-88
2023/02/18 02:09:23;;;;;;;70.43;33.10;;;11.40;99.90;;;;;;5041801;28;20031;-89
2023/02/18 02:12:17;;;;;;;74.18;32.85;;;11.40;99.90;;;;;;5058707;28;20112;-92
2023/02/18 02:15:01;;;;;;;72.13;33.40;;;11.40;99.90;;;;;;5059654;28;20033;-89
2023/02/18 02:17:45;;;;;;;66.88;30.33;;;11.50;99.90;;;;;;5092629;28;20024;-90
2023/02/18 02:20:17;;;;;;;70.88;32.90;;;11.40;99.90;;;;;;5074792;28;20017;-89
2023/02/18 02:23:11;;;;;;;76.90;33.67;;;11.40;99.90;;;;;;5075003;28;20028;-89
2023/02/18 02:25:55;;;;;;;75.03;33.17;;;11.40;99.90;;;;;;5074654;28;20100;-90
2023/02/18 02:28:49;;;;;;;73.82;33.65;;;11.40;99.90;;;;;;5074964;28;20116;-89
2023/02/18 02:31:42;;;;;;;84.53;35.55;;;11.40;99.90;;;;;;5058382;28;20033;-90
2023/02/18 02:34:39;;;;;;;82.45;34.10;;;11.40;99.90;;;;;;5058072;28;20059;-89
2023/02/18 02:37:38;;;;;;;82.35;33.70;;;11.40;99.90;;;;;;5074611;28;20060;-90
2023/02/18 02:40:27;;;;;;;81.63;34.50;;;11.40;99.90;;;;;;5027235;28;20032;-89
2023/02/18 02:43:05;;;;;;;79.57;34.80;;;11.40;99.90;;;;;;5058105;28;20029;-90
2023/02/18 02:45:42;;;;;;;82.70;36.38;;;11.40;99.90;;;;;;5074557;28;20060;-89
2023/02/18 02:48:29;;;;;;;79.75;34.08;;;11.40;99.90;;;;;;5057445;28;20123;-89
2023/02/18 02:51:08;;;;;;;81.38;34.38;;;11.50;99.90;;;;;;5074258;28;20064;-89
2023/02/18 02:53:36;;;;;;;88.43;34.55;;;11.50;99.90;;;;;;5075301;28;20058;-89
2023/02/18 02:56:12;;;;;;;88.35;37.17;;;11.50;99.90;;;;;;5057358;28;20028;-89
2023/02/18 02:58:38;;;;;;;106.30;38.15;;;11.50;99.90;;;;;;5057870;28;20021;-89
2023/02/18 03:01:35;;;;;;;86.15;35.63;;;11.40;99.90;;;;;;5057549;28;20423;-89
2023/02/18 03:04:12;;;;;;;80.80;33.47;;;11.50;99.90;;;;;;5057375;28;20499;-90
2023/02/18 03:07:08;;;;;;;80.20;33.47;;;11.50;99.90;;;;;;5073864;28;20531;-90
2023/02/18 03:10:14;;;;;;;82.32;33.67;;;11.50;99.90;;;;;;5075431;28;20108;-89
2023/02/18 03:13:08;;;;;;;75.20;33.58;;;11.50;99.90;;;;;;5057576;28;20173;-88
2023/02/18 03:15:46;;;;;;;80.78;31.80;;;11.50;99.90;;;;;;5083855;28;20024;-88
2023/02/18 03:18:34;;;;;;;88.05;34.78;;;11.50;99.90;;;;;;5074758;28;20063;-88
2023/02/18 03:21:07;;;;;;;84.50;34.20;;;11.50;99.90;;;;;;5057214;28;20111;-88
2023/02/18 03:23:41;;;;;;;82.13;33.08;;;11.50;99.90;;;;;;5073803;28;20510;-88
2023/02/18 03:26:17;;;;;;;79.50;32.63;;;11.50;99.90;;;;;;5074602;28;20021;-88
2023/02/18 03:28:48;;;;;;;78.70;31.63;;;11.50;99.90;;;;;;5055909;28;20029;-87
2023/02/18 03:31:19;;;;;;;75.00;31.15;;;11.50;99.90;;;;;;5056450;28;20115;-88
2023/02/18 03:33:53;;;;;;;65.22;28.58;;;11.50;99.90;;;;;;5056989;28;20032;-88
2023/02/18 03:36:21;;;;;;;63.60;27.75;;;11.50;99.90;;;;;;5056466;28;20059;-88
2023/02/18 03:39:01;;;;;;;59.88;25.40;;;11.50;99.90;;;;;;5056458;28;20025;-88
2023/02/18 03:41:28;;;;;;;49.65;23.48;;;11.50;99.90;;;;;;5057014;28;20027;-88
2023/02/18 03:43:59;;;;;;;47.67;21.83;;;11.50;99.90;;;;;;5056466;28;20017;-88
2023/02/18 03:46:31;;;;;;;46.25;20.95;;;11.60;99.90;;;;;;5056668;28;20422;-88
2023/02/18 03:48:57;;;;;;;49.58;22.30;;;11.60;99.90;;;;;;5056835;28;20020;-89
2023/02/18 03:51:23;;;;;;;48.75;20.85;;;11.60;99.90;;;;;;5056398;28;20032;-88
2023/02/18 03:53:49;;;;;;;41.65;20.23;;;11.60;99.90;;;;;;5073028;28;20423;-89
2023/02/18 03:56:16;;;;;;;39.38;19.55;;;11.60;99.90;;;;;;5056199;28;20403;-88
2023/02/18 03:58:44;;;;;;;38.47;19.35;;;11.60;99.90;;;;;;5056933;28;20021;-89
2023/02/18 04:01:09;;;;;;;41.85;18.77;;;11.60;99.90;;;;;;5041068;28;20036;-89
2023/02/18 04:03:35;;;;;;;37.40;18.92;;;11.60;99.90;;;;;;5056633;28;20025;-89
2023/02/18 04:06:01;;;;;;;40.95;20.33;;;11.60;99.90;;;;;;5056284;28;20048;-90
2023/02/18 04:08:27;;;;;;;45.22;21.40;;;11.60;99.90;;;;;;5056844;28;20371;-89
2023/02/18 04:10:53;;;;;;;42.88;20.50;;;11.60;99.90;;;;;;5040653;28;20060;-89
2023/02/18 04:13:23;;;;;;;41.17;20.77;;;11.60;99.90;;;;;;5057004;28;20016;-90
2023/02/18 04:15:52;;;;;;;46.73;20.60;;;11.60;99.90;;;;;;5056800;28;20039;-91
2023/02/18 04:18:18;;;;;;;42.60;19.83;;;11.50;99.90;;;;;;5057334;28;20034;-91
2023/02/18 04:20:47;;;;;;;45.42;20.92;;;11.50;99.90;;;;;;5063659;28;20017;-90
2023/02/18 04:23:15;;;;;;;44.35;20.45;;;11.60;99.90;;;;;;5074550;28;20108;-91
2023/02/18 04:25:41;;;;;;;44.30;19.25;;;11.60;99.90;;;;;;5079622;28;20040;-91
2023/02/18 04:28:09;;;;;;;36.45;18.35;;;11.50;99.90;;;;;;5078927;28;20092;-92
2023/02/18 04:30:35;;;;;;;37.47;16.75;;;11.50;99.90;;;;;;5069442;28;20036;-91
2023/02/18 04:33:01;;;;;;;42.58;18.92;;;11.50;99.90;;;;;;5074285;28;20028;-91
2023/02/18 04:35:29;;;;;;;36.67;16.48;;;11.50;99.90;;;;;;5078552;28;20024;-91
2023/02/18 04:37:57;;;;;;;34.53;16.30;;;11.50;99.90;;;;;;5060705;28;20029;-90
2023/02/18 04:40:29;;;;;;;33.00;14.68;;;11.50;99.90;;;;;;5060102;28;20035;-91
2023/02/18 04:43:01;;;;;;;33.15;13.77;;;11.50;99.90;;;;;;5061005;28;20075;-90
2023/02/18 04:45:27;;;;;;;31.83;12.63;;;11.50;99.90;;;;;;5066725;28;20024;-90
2023/02/18 04:47:53;;;;;;;27.15;12.48;;;11.50;99.90;;;;;;5067006;28;20449;-91
2023/02/18 04:50:22;;;;;;;28.25;12.48;;;11.50;99.90;;;;;;5060265;28;20081;-91
2023/02/18 04:52:48;;;;;;;21.00;10.50;;;11.50;99.90;;;;;;5043605;28;20028;-90
2023/02/18 04:55:26;;;;;;;;;;;;;;;;;;;;;
2023/02/18 04:57:52;;;;;;;19.02;9.77;;;11.40;99.90;;;;;;5078262;28;20035;-89
2023/02/18 05:00:29;;;;;;;;;;;;;;;;;;;;;
2023/02/18 05:03:13;;;;;;;21.73;9.50;;;11.40;99.90;;;;;;5077940;28;20043;-90
2023/02/18 05:05:46;;;;;;;19.20;8.75;;;11.50;99.90;;;;;;5059675;28;20112;-89
2023/02/18 05:08:15;;;;;;;17.58;8.23;;;11.40;99.90;;;;;;5043934;28;20064;-90
2023/02/18 05:10:46;;;;;;;19.83;8.98;;;11.40;99.90;;;;;;5060128;28;20016;-90
2023/02/18 05:13:14;;;;;;;;;;;11.40;99.90;;;;;;5060898;28;20040;-90
2023/02/18 05:15:42;;;;;;;17.05;8.30;;;11.40;99.90;;;;;;5076270;28;19952;-90
2023/02/18 05:18:22;;;;;;;;;;;;;;;;;;;;;
2023/02/18 05:20:48;;;;;;;13.95;7.22;;;11.40;99.90;;;;;;5077826;28;20016;-90
2023/02/18 05:23:20;;;;;;;17.20;7.90;;;11.40;99.90;;;;;;5076429;28;20020;-91
2023/02/18 05:25:46;;;;;;;18.52;8.65;;;11.40;99.90;;;;;;5031234;28;20468;-90
2023/02/18 05:28:14;;;;;;;17.42;9.00;;;11.40;99.90;;;;;;5060398;28;20044;-90
2023/02/18 05:30:40;;;;;;;17.85;9.10;;;11.40;99.90;;;;;;5060655;28;20119;-90
2023/02/18 05:33:05;;;;;;;15.40;8.23;;;11.40;99.90;;;;;;5061996;28;20103;-90
2023/02/18 05:35:36;;;;;;;17.98;8.45;;;11.40;99.90;;;;;;5062207;28;20031;-91
2023/02/18 05:38:12;;;;;;;;;;;;;;;;;;;;;
2023/02/18 05:40:41;;;;;;;14.80;7.50;;;11.40;99.90;;;;;;5076890;28;20026;-91
2023/02/18 05:43:09;;;;;;;14.30;7.35;;;11.40;99.90;;;;;;5059383;28;20031;-90
2023/02/18 05:45:38;;;;;;;16.05;7.82;;;11.40;99.90;;;;;;5059272;28;20028;-89
2023/02/18 05:48:07;;;;;;;12.55;7.05;;;11.40;99.90;;;;;;5058977;28;20032;-90
2023/02/18 05:50:33;;;;;;;10.30;5.90;;;11.40;99.90;;;;;;5041530;28;20029;-90
2023/02/18 05:53:01;;;;;;;12.07;6.38;;;11.40;99.90;;;;;;5058856;28;20028;-90
2023/02/18 05:55:36;;;;;;;12.80;6.40;;;11.30;99.90;;;;;;5042504;28;20472;-90
2023/02/18 05:58:04;;;;;;;11.98;6.20;;;11.30;99.90;;;;;;5043158;28;20472;-90
2023/02/18 06:00:33;;;;;;;10.90;5.57;;;11.30;99.90;;;;;;5058915;28;20016;-91
2023/02/18 06:02:59;;;;;;;12.15;6.55;;;11.30;99.90;;;;;;5059139;28;20035;-90
2023/02/18 06:05:25;;;;;;;11.88;5.70;;;11.30;99.90;;;;;;5058517;28;20021;-89
2023/02/18 06:07:55;;;;;;;11.55;5.60;;;11.40;99.90;;;;;;5058800;28;20040;-91
2023/02/18 06:10:21;;;;;;;11.63;5.45;;;11.30;99.90;;;;;;5076040;28;20465;-91
2023/02/18 06:12:47;;;;;;;9.02;4.95;;;11.30;99.90;;;;;;5058227;28;20028;-91
2023/02/18 06:15:17;;;;;;;9.38;5.00;;;11.30;99.90;;;;;;5058535;28;20029;-90
2023/02/18 06:17:43;;;;;;;9.77;5.50;;;11.30;99.90;;;;;;5042149;28;20056;-91
2023/02/18 06:20:09;;;;;;;11.25;6.18;;;11.30;99.90;;;;;;5058511;28;20036;-91
2023/02/18 06:22:35;;;;;;;11.82;6.68;;;11.30;99.90;;;;;;5041423;28;20029;-92
2023/02/18 06:25:00;;;;;;;11.35;5.75;;;11.30;99.90;;;;;;5058054;28;20107;-91
2023/02/18 06:27:26;;;;;;;9.80;5.70;;;11.30;99.90;;;;;;5058138;28;20464;-92
2023/02/18 06:29:57;;;;;;;9.43;5.20;;;11.20;99.90;;;;;;5058249;28;20103;-92
2023/02/18 06:32:23;;;;;;;10.15;5.10;;;11.20;99.90;;;;;;5042652;28;20056;-91
2023/02/18 06:34:52;;;;;;;9.57;4.80;;;11.20;99.90;;;;;;5059741;28;20067;-90
2023/02/18 06:37:20;;;;;;;10.90;5.15;;;11.20;99.90;;;;;;5060783;28;20017;-90
2023/02/18 06:39:46;;;;;;;10.40;5.15;;;11.20;99.90;;;;;;5042751;28;20555;-91
2023/02/18 06:42:15;;;;;;;8.77;4.93;;;11.30;99.90;;;;;;5057861;28;20067;-92
2023/02/18 06:44:46;;;;;;;9.73;5.10;;;11.20;99.90;;;;;;5057508;28;20028;-92
2023/02/18 06:47:12;;;;;;;8.55;4.93;;;11.20;99.90;;;;;;5058008;28;20477;-91
2023/02/18 06:50:00;;;;;;;11.18;5.35;;;11.20;99.90;;;;;;5057775;28;20108;-92
2023/02/18 06:52:36;;;;;;;;;;;;;;;;;;;;;
2023/02/18 06:55:08;;;;;;;11.40;5.63;;;11.20;99.90;;;;;;5075817;28;20368;-91
2023/02/18 06:57:34;;;;;;;13.00;5.90;;;11.20;99.90;;;;;;5057833;28;20078;-92
2023/02/18 07:00:07;;;;;;;10.48;5.85;;;11.20;99.90;;;;;;5058078;28;20051;-91
2023/02/18 07:02:38;;;;;;;12.68;6.40;;;11.10;99.90;;;;;;5039578;28;20029;-90
2023/02/18 07:05:09;;;;;;;14.90;6.82;;;11.10;99.90;;;;;;5048024;28;20047;-91
2023/02/18 07:07:35;;;;;;;11.77;6.35;;;11.20;99.90;;;;;;5057945;28;20131;-93
2023/02/18 07:10:03;;;;;;;12.60;6.38;;;11.20;99.90;;;;;;5057947;28;20052;-91
2023/02/18 07:12:33;;;;;;;12.50;6.22;;;11.10;99.90;;;;;;5057896;28;20116;-91
2023/02/18 07:15:07;;;;;;;12.88;6.85;;;11.10;99.90;;;;;;5058511;28;20119;-91
2023/02/18 07:17:36;;;;;;;16.00;7.88;;;11.10;99.90;;;;;;5071969;28;20060;-91
2023/02/18 07:20:03;;;;;;;17.52;7.45;;;11.10;99.90;;;;;;5061087;28;20046;-90
2023/02/18 07:22:44;;;;;;;14.95;7.93;;;11.00;99.90;;;;;;5057416;28;20077;-91
2023/02/18 07:25:15;;;;;;;;;;;11.10;99.90;;;;;;5092618;28;20478;-91
2023/02/18 07:27:41;;;;;;;14.23;7.35;;;11.10;99.90;;;;;;5061512;28;20359;-92
2023/02/18 07:30:21;;;;;;;16.52;7.95;;;11.00;99.90;;;;;;5076301;28;20016;-91
2023/02/18 07:32:53;;;;;;;17.88;7.90;;;11.00;99.90;;;;;;5061612;28;20032;-91
2023/02/18 07:35:29;;;;;;;15.35;7.80;;;11.10;99.90;;;;;;5057828;28;20025;-91
2023/02/18 07:38:15;;;;;;;;;;;;;;;;;;;;;
2023/02/18 07:40:52;;;;;;;16.05;7.65;;;11.10;99.90;;;;;;5075639;28;20462;-92
2023/02/18 07:43:35;;;;;;;16.98;9.40;;;11.00;99.90;;;;;;5041507;28;20036;-93
2023/02/18 07:46:12;;;;;;;15.25;7.95;;;11.00;99.90;;;;;;5042696;28;20464;-92
2023/02/18 07:48:48;;;;;;;17.08;9.45;;;11.00;99.90;;;;;;5074742;28;20027;-93
2023/02/18 07:51:33;;;;;;;19.17;9.32;;;11.00;99.90;;;;;;5064519;28;20019;-93
2023/02/18 07:54:20;;;;;;;21.65;9.55;;;11.00;99.90;;;;;;5078180;28;20039;-92
2023/02/18 07:56:47;;;;;;;20.25;10.00;;;11.00;99.90;;;;;;5093905;28;20044;-92
2023/02/18 07:59:28;;;;;;;21.20;10.07;;;11.00;99.90;;;;;;5079170;28;20043;-93
2023/02/18 08:02:04;;;;;;;;;;;;;;;;;;;;;
2023/02/18 08:07:47;;;;;;;16.98;8.02;;;10.90;99.90;;;;;;5057732;28;20201;-92
2023/02/18 08:10:13;;;;;;;23.27;7.88;;;10.90;99.90;;;;;;5058101;28;20023;-91
2023/02/18 08:12:41;;;;;;;17.48;7.72;;;10.90;99.90;;;;;;5042448;28;20036;-91
2023/02/18 08:15:24;;;;;;;;;;;;;;;;;;;;;
2023/02/18 08:17:51;;;;;;;16.85;8.10;;;10.90;99.90;;;;;;5081437;28;20123;-90
2023/02/18 08:20:19;;;;;;;15.85;9.02;;;10.80;99.90;;;;;;5062613;28;20107;-91
2023/02/18 08:22:52;;;;;;;18.30;9.80;;;10.90;99.90;;;;;;5062729;28;20047;-90
2023/02/18 08:25:25;;;;;;;20.25;9.65;;;10.80;99.90;;;;;;5046178;28;20024;-90
2023/02/18 08:27:59;;;;;;;18.83;9.50;;;10.80;99.90;;;;;;5046469;28;20039;-90
2023/02/18 08:30:49;;;;;;;23.98;10.38;;;10.80;99.90;;;;;;5046350;28;20476;-92
2023/02/18 08:33:15;;;;;;;22.50;11.15;;;10.90;99.90;;;;;;5078050;28;20040;-90
2023/02/18 08:38:34;;;;;;;23.92;13.02;;;10.90;99.90;;;;;;5078858;28;20110;-90
2023/02/18 08:41:08;;;;;;;27.67;14.27;;;10.80;99.90;;;;;;5061035;28;20067;-90
2023/02/18 08:43:37;;;;;;;31.25;13.05;;;10.80;99.90;;;;;;5060732;28;20025;-89
2023/02/18 08:46:11;;;;;;;31.50;13.52;;;10.70;99.90;;;;;;5060623;28;20067;-90
2023/02/18 08:48:40;;;;;;;28.92;12.93;;;10.80;99.90;;;;;;5077671;28;20479;-91
2023/02/18 08:51:24;;;;;;;26.38;11.98;;;10.70;99.90;;;;;;5060489;28;20029;-92
2023/02/18 08:56:43;;;;;;;25.35;11.23;;;10.70;99.90;;;;;;5067654;28;20028;-91
2023/02/18 08:59:14;;;;;;;29.20;10.57;;;10.70;99.90;;;;;;5044819;28;20032;-92
2023/02/18 09:01:51;;;;;;;26.02;10.70;;;10.70;99.90;;;;;;5060434;28;20161;-91
2023/02/18 09:04:39;;;;;;;29.80;11.20;;;10.70;99.90;;;;;;5060684;28;20024;-91
2023/02/18 09:07:13;;;;;;;27.30;9.35;;;10.70;99.90;;;;;;5045637;28;20473;-92
2023/02/18 09:09:38;;;;;;;26.17;8.63;;;10.70;99.90;;;;;;5060183;28;20039;-91
2023/02/18 09:12:12;;;;;;;29.52;8.98;;;10.70;99.90;;;;;;5060056;28;20017;-91
2023/02/18 09:14:47;;;;;;;21.25;7.78;;;10.70;99.90;;;;;;5060234;28;20032;-92
2023/02/18 09:17:18;;;;;;;26.08;7.88;;;10.60;99.90;;;;;;5060550;28;20388;-91
2023/02/18 09:19:55;;;;;;;;;;;10.60;99.90;;;;;;5044398;28;20036;-91
2023/02/18 09:22:29;;;;;;;27.38;7.50;;;10.60;99.90;;;;;;5060392;28;19911;-91
2023/02/18 09:25:03;;;;;;;27.25;7.40;;;10.60;99.90;;;;;;5060196;28;20380;-90
2023/02/18 09:27:38;;;;;;;24.40;7.50;;;10.60;99.90;;;;;;5059817;28;20021;-91
2023/02/18 09:30:05;;;;;;;23.55;6.35;;;10.50;99.90;;;;;;5059874;28;20059;-91
2023/02/18 09:32:41;;;;;;;22.00;6.10;;;10.50;99.90;;;;;;5060268;28;20024;-91
2023/02/18 09:35:13;;;;;;;26.90;5.82;;;10.50;99.90;;;;;;5048817;28;20039;-91
2023/02/18 09:37:49;;;;;;;20.25;6.07;;;10.40;99.90;;;;;;5064054;28;20163;-94
2023/02/18 09:40:38;;;;;;;;;;;;;;;;;;;;;
2023/02/18 09:43:05;;;;;;;26.17;5.20;;;10.40;99.90;;;;;;5077657;28;20035;-92
2023/02/18 09:45:43;;;;;;;20.90;5.57;;;10.40;99.90;;;;;;5060141;28;20024;-92
2023/02/18 09:48:16;;;;;;;20.00;4.40;;;10.30;99.90;;;;;;5066177;28;20111;-90
2023/02/18 09:50:51;;;;;;;18.00;4.72;;;10.40;99.90;;;;;;5036536;28;20028;-92
2023/02/18 09:56:13;;;;;;;;;;;10.30;99.90;;;;;;4996865;28;20532;-92
2023/02/18 09:58:48;;;;;;;18.13;4.63;;;10.30;99.90;;;;;;5048641;28;19971;-92
2023/02/18 10:01:45;;;;;;;14.00;3.72;;;10.30;99.90;;;;;;5043297;28;20124;-94
2023/02/18 10:04:57;;;;;;;20.65;4.22;;;10.30;99.90;;;;;;5059448;28;20024;-91
2023/02/18 10:07:34;;;;;;;21.08;3.90;;;10.30;99.90;;;;;;5059181;28;20048;-92
2023/02/18 10:13:37;;;;;;;21.80;5.18;;;10.30;99.90;;;;;;5063337;28;20175;-93
2023/02/18 10:16:04;;;;;;;18.42;4.40;;;10.30;99.90;;;;;;5061729;28;20361;-92
2023/02/18 10:18:45;;;;;;;16.85;3.55;;;10.30;99.90;;;;;;5058902;28;20024;-93
2023/02/18 10:21:24;;;;;;;17.10;4.00;;;10.30;99.90;;;;;;5058923;28;20028;-92
2023/02/18 10:24:24;;;;;;;19.20;4.20;;;10.30;99.90;;;;;;5059041;28;20025;-90
2023/02/18 10:26:59;;;;;;;14.40;4.03;;;10.30;99.90;;;;;;5059204;28;20016;-91
2023/02/18 10:29:31;;;;;;;18.45;4.30;;;10.30;99.90;;;;;;5059086;28;20020;-90
2023/02/18 10:32:21;;;;;;;19.00;3.80;;;10.30;99.90;;;;;;5058791;28;20048;-90
2023/02/18 10:34:54;;;;;;;18.83;6.07;;;10.30;99.90;;;;;;5075630;28;20115;-89
2023/02/18 10:37:19;;;;;;;16.55;4.63;;;10.30;99.90;;;;;;5075362;28;20027;-90
2023/02/18 10:40:22;;;;;;;18.50;4.50;;;10.30;99.90;;;;;;5091820;28;20119;-89
2023/02/18 10:43:24;;;;;;;22.52;4.95;;;10.30;99.90;;;;;;5074632;28;20025;-90
2023/02/18 10:46:10;;;;;;;24.10;8.18;;;10.30;99.90;;;;;;5044584;28;20025;-89
2023/02/18 10:49:18;;;;;;;20.55;7.32;;;10.30;99.90;;;;;;5058105;28;20051;-90
2023/02/18 10:51:56;;;;;;;17.92;4.43;;;10.30;99.90;;;;;;5034202;28;20576;-90
2023/02/18 10:55:04;;;;;;;17.48;5.63;;;10.30;99.90;;;;;;5026618;28;20037;-91
2023/02/18 10:57:30;;;;;;;16.27;4.85;;;10.30;99.90;;;;;;5076257;28;20115;-93
2023/02/18 11:00:28;;;;;;;;;;;;;;;;;;;;;
2023/02/18 11:03:38;;;;;;;20.58;5.75;;;10.30;99.90;;;;;;5076636;28;20088;-93
2023/02/18 11:06:15;;;;;;;23.40;6.38;;;10.40;99.90;;;;;;5059028;28;20040;-92
2023/02/18 11:08:48;;;;;;;18.48;4.80;;;10.30;99.90;;;;;;5058833;28;20025;-91
2023/02/18 11:11:31;;;;;;;20.48;4.70;;;10.30;99.90;;;;;;5057804;28;20025;-92
2023/02/18 11:14:10;;;;;;;25.05;5.18;;;10.30;99.90;;;;;;5069032;28;20012;-91
2023/02/18 11:16:37;;;;;;;22.15;4.97;;;10.40;99.90;;;;;;5063637;28;20040;-91
2023/02/18 11:19:31;;;;;;;19.45;4.80;;;10.40;99.90;;;;;;5114920;28;20028;-91
2023/02/18 11:22:22;;;;;;;19.45;5.75;;;10.40;99.90;;;;;;5075894;28;20029;-90
2023/02/18 11:24:56;;;;;;;21.13;4.97;;;10.50;99.90;;;;;;5076027;28;20016;-92
2023/02/18 11:27:54;;;;;;;15.60;4.82;;;10.50;99.90;;;;;;5094247;28;20024;-92
2023/02/18 11:30:37;;;;;;;21.85;5.57;;;10.50;99.90;;;;;;5055156;28;20369;-92
2023/02/18 11:33:19;;;;;;;20.27;5.03;;;10.60;99.90;;;;;;5057635;28;20400;-90
2023/02/18 11:36:03;;;;;;;24.95;6.28;;;10.60;99.90;;;;;;5057608;28;20124;-92
2023/02/18 11:39:13;;;;;;;;;;;;;;;;;;;;;
2023/02/18 11:42:03;;;;;;;22.73;5.88;;;10.60;99.90;;;;;;5076255;28;20088;-92
2023/02/18 11:44:39;;;;;;;17.88;4.95;;;10.60;99.90;;;;;;5079508;28;20069;-89
2023/02/18 11:47:23;;;;;;;;;;;;;;;;;;;;;
2023/02/18 11:50:15;;;;;;;21.05;6.05;;;10.70;99.90;;;;;;5073058;28;20039;-90
2023/02/18 11:52:49;;;;;;;20.10;5.05;;;10.70;99.90;;;;;;5073531;28;20044;-90
2023/02/18 11:55:29;;;;;;;19.27;6.85;;;10.70;99.90;;;;;;5045199;28;20029;-92
2023/02/18 11:58:13;;;;;;;24.45;6.55;;;10.70;99.90;;;;;;5057810;28;20029;-93
2023/02/18 12:00:55;;;;;;;26.08;6.45;;;10.80;99.90;;;;;;5045471;28;20048;-92
2023/02/18 12:03:40;;;;;;;25.60;6.22;;;10.70;99.90;;;;;;5064231;28;20039;-90
2023/02/18 12:06:35;;;;;;;17.20;7.07;;;10.80;99.90;;;;;;5060259;28;20051;-91
2023/02/18 12:09:13;;;;;;;20.83;5.82;;;10.80;99.90;;;;;;5058605;28;20028;-91
2023/02/18 12:11:49;;;;;;;26.58;7.65;;;10.80;99.90;;;;;;5060967;28;20024;-91
2023/02/18 12:14:21;;;;;;;18.63;5.10;;;10.80;99.90;;;;;;5058419;28;20033;-91
2023/02/18 12:16:52;;;;;;;;;;;10.90;99.90;;;;;;5057956;28;20024;-90
2023/02/18 12:19:50;;;;;;;22.52;7.68;;;10.90;99.90;;;;;;5073773;28;19904;-90
2023/02/18 12:22:28;;;;;;;19.77;6.60;;;10.90;99.90;;;;;;5039043;28;20079;-89
2023/02/18 12:25:15;;;;;;;21.10;7.57;;;11.00;99.90;;;;;;5067710;28;20460;-90
2023/02/18 12:27:54;;;;;;;25.13;7.32;;;11.00;99.90;;;;;;5079707;28;20032;-89
2023/02/18 12:30:51;;;;;;;;;;;;;;;;;;;;;
2023/02/18 12:34:02;;;;;;;25.60;7.60;;;11.00;99.90;;;;;;5055128;28;20033;-92
2023/02/18 12:36:40;;;;;;;29.20;6.88;;;11.00;99.90;;;;;;5040847;28;20126;-89
2023/02/18 12:39:38;;;;;;;19.27;6.75;;;11.00;99.90;;;;;;5058301;28;20032;-90
2023/02/18 12:42:12;;;;;;;22.25;7.05;;;11.00;99.90;;;;;;5040472;28;20151;-89
2023/02/18 12:45:20;;;;;;;28.35;7.65;;;11.00;99.90;;;;;;5090935;28;20045;-92
2023/02/18 12:48:19;;;;;;;24.58;6.70;;;11.00;99.90;;;;;;5075290;28;20476;-90
2023/02/18 12:51:10;;;;;;;22.58;6.50;;;11.00;99.90;;;;;;5074379;28;20198;-91
2023/02/18 12:54:02;;;;;;;22.15;6.55;;;11.10;99.90;;;;;;5057685;28;20063;-93
2023/02/18 12:57:06;;;;;;;17.38;6.82;;;11.10;99.90;;;;;;5093015;28;20056;-89
2023/02/18 12:59:49;;;;;;;20.83;6.25;;;11.10;99.90;;;;;;5061920;28;20131;-90
2023/02/18 13:02:42;;;;;;;22.23;6.63;;;11.00;99.90;;;;;;5078278;28;20059;-90
2023/02/18 13:05:29;;;;;;;20.20;6.60;;;11.10;99.90;;;;;;5104462;28;20127;-90
2023/02/18 13:08:22;;;;;;;18.77;6.15;;;11.10;99.90;;;;;;5064903;28;20041;-91
2023/02/18 13:11:14;;;;;;;19.98;6.85;;;11.10;99.90;;;;;;5060673;28;20017;-90
2023/02/18 13:13:54;;;;;;;19.60;6.68;;;11.10;99.90;;;;;;5072029;28;20071;-90
2023/02/18 13:16:25;;;;;;;23.95;6.20;;;11.10;99.90;;;;;;5075912;28;20028;-91
2023/02/18 13:19:39;;;;;;;;;;;;;;;;;;;;;
2023/02/18 13:22:24;;;;;;;;;;;;;;;;;;;;;
2023/02/18 13:28:11;;;;;;;;;;;;;;;;;;;;;
2023/02/18 13:31:04;;;;;;;24.50;6.60;;;11.10;99.90;;;;;;5077675;28;20035;-87
2023/02/18 13:33:51;;;;;;;18.95;5.50;;;11.20;99.90;;;;;;5058717;28;20169;-90
2023/02/18 13:36:44;;;;;;;17.98;5.78;;;11.20;99.90;;;;;;5058279;28;20016;-92
2023/02/18 13:39:19;;;;;;;22.52;5.82;;;11.20;99.90;;;;;;5058950;28;20028;-89
2023/02/18 13:41:49;;;;;;;18.77;5.70;;;11.20;99.90;;;;;;5059072;28;20047;-90
2023/02/18 13:44:23;;;;;;;23.80;7.22;;;11.20;99.90;;;;;;5059420;28;20036;-90
2023/02/18 13:46:54;;;;;;;26.02;6.75;;;11.20;99.90;;;;;;5061520;28;20064;-90
2023/02/18 13:49:47;;;;;;;22.67;6.63;;;11.30;99.90;;;;;;5063897;28;20197;-88
2023/02/18 13:52:50;;;;;;;29.52;6.55;;;11.30;99.90;;;;;;5076420;28;20028;-90
2023/02/18 13:55:25;;;;;;;22.85;6.10;;;11.30;99.90;;;;;;5062214;28;20040;-93
2023/02/18 13:57:54;;;;;;;23.83;6.53;;;11.30;99.90;;;;;;5062221;28;20479;-93
2023/02/18 14:00:40;;;;;;;26.60;6.32;;;11.30;99.90;;;;;;5061963;28;20023;-90